Time;durP1;ratioP1;P1;durP2;ratioP2;P2;SDS_P1;SDS_P2;PMS_P1;PMS_P2;Temp;Humidity;BMP_temperature;BMP_pressure;BME280_temperature;BME280_humidity;BME280_pressure;Samples;Min_cycle;Max_cycle;Signal;HPM_P1;HPM_P2
2023/09/28 00:02:52;;;;;;;3.47;2.60;;;17.90;30.60;;;;;;4997157;28;20201;-42
2023/09/28 00:05:19;;;;;;;3.30;2.70;;;17.90;31.40;;;;;;4996826;28;20538;-42
2023/09/28 00:07:46;;;;;;;2.47;2.27;;;17.80;31.00;;;;;;4996582;28;20598;-41
2023/09/28 00:10:18;;;;;;;5.10;2.43;;;17.80;34.20;;;;;;4996494;28;20202;-41
2023/09/28 00:12:48;;;;;;;6.57;2.43;;;17.70;36.20;;;;;;4996571;28;20541;-42
2023/09/28 00:15:14;;;;;;;4.67;2.53;;;17.70;41.90;;;;;;4996852;28;20182;-47
2023/09/28 00:20:18;;;;;;;3.73;2.40;;;17.60;46.80;;;;;;5033035;28;20703;-42
2023/09/28 00:22:54;;;;;;;3.47;2.50;;;17.50;49.20;;;;;;5036175;28;20173;-42
2023/09/28 00:25:22;;;;;;;5.47;2.77;;;17.50;51.90;;;;;;5035884;28;20161;-42
2023/09/28 00:27:50;;;;;;;3.77;2.97;;;17.50;53.80;;;;;;5035780;28;20549;-43
2023/09/28 00:30:19;;;;;;;5.17;2.47;;;17.50;57.20;;;;;;5035612;28;20573;-43
2023/09/28 00:32:50;;;;;;;2.73;2.30;;;17.40;57.90;;;;;;5035827;28;20181;-41
2023/09/28 00:35:17;;;;;;;4.27;2.40;;;17.40;60.40;;;;;;5035788;28;20169;-44
2023/09/28 00:37:43;;;;;;;3.77;2.63;;;17.30;60.50;;;;;;5035429;28;20224;-43
2023/09/28 00:43:07;;;;;;;2.43;2.20;;;17.30;66.60;;;;;;5026742;28;20224;-42
2023/09/28 00:45:33;;;;;;;4.57;2.70;;;17.30;67.20;;;;;;5035614;28;20181;-41
2023/09/28 00:48:05;;;;;;;3.50;3.07;;;17.30;67.30;;;;;;5035458;28;20196;-40
2023/09/28 00:50:33;;;;;;;5.70;2.60;;;17.30;69.00;;;;;;5035751;28;20678;-43
2023/09/28 00:53:10;;;;;;;10.90;4.00;;;17.30;72.10;;;;;;5035204;28;20637;-41
2023/09/28 00:55:36;;;;;;;4.07;2.73;;;17.20;72.30;;;;;;5035141;28;20172;-45
2023/09/28 00:58:09;;;;;;;5.10;2.70;;;17.20;74.90;;;;;;5035407;28;20208;-43
2023/09/28 01:00:36;;;;;;;3.10;2.50;;;17.20;77.40;;;;;;5035312;28;20668;-41
2023/09/28 01:03:05;;;;;;;3.20;2.60;;;17.20;79.30;;;;;;5034873;28;20706;-44
2023/09/28 01:05:39;;;;;;;3.80;2.60;;;17.10;81.80;;;;;;5035102;28;20217;-43
2023/09/28 01:08:18;;;;;;;5.93;2.80;;;17.20;82.10;;;;;;5035580;28;20161;-43
2023/09/28 01:10:44;;;;;;;5.03;2.73;;;17.10;81.90;;;;;;5034785;28;20197;-43
2023/09/28 01:13:20;;;;;;;3.77;2.67;;;17.10;86.30;;;;;;5035077;28;20181;-42
2023/09/28 01:15:47;;;;;;;3.83;2.40;;;17.10;88.30;;;;;;5035063;28;20201;-43
2023/09/28 01:18:17;;;;;;;3.40;2.87;;;17.10;89.20;;;;;;5035109;28;20211;-43
2023/09/28 01:20:45;;;;;;;4.63;3.00;;;17.10;90.10;;;;;;5034838;28;20193;-42
2023/09/28 01:23:11;;;;;;;4.17;2.67;;;17.00;92.00;;;;;;5034204;28;20209;-47
2023/09/28 01:25:37;;;;;;;4.20;3.00;;;17.00;93.30;;;;;;5034572;28;20228;-47
2023/09/28 01:28:05;;;;;;;3.50;2.67;;;17.00;93.80;;;;;;5034977;28;20168;-47
2023/09/28 01:30:31;;;;;;;3.90;2.80;;;17.00;95.40;;;;;;5034757;28;20566;-46
2023/09/28 01:32:57;;;;;;;4.37;3.17;;;17.00;95.20;;;;;;5034736;28;20188;-45
2023/09/28 01:35:22;;;;;;;4.77;2.57;;;17.00;96.90;;;;;;5034921;28;20173;-46
2023/09/28 01:38:12;;;;;;;3.87;2.73;;;17.00;96.80;;;;;;5034205;28;20714;-45
2023/09/28 01:40:39;;;;;;;4.47;2.87;;;16.90;96.20;;;;;;5034259;28;20200;-45
2023/09/28 01:43:05;;;;;;;4.83;2.70;;;16.90;96.60;;;;;;5034490;28;20231;-46
2023/09/28 01:45:31;;;;;;;4.00;2.60;;;16.90;97.10;;;;;;5034454;28;20238;-45
2023/09/28 01:47:56;;;;;;;2.67;2.40;;;16.80;97.30;;;;;;5034093;28;20631;-48
2023/09/28 01:50:22;;;;;;;4.17;2.47;;;16.80;98.60;;;;;;5033987;28;20330;-46
2023/09/28 01:52:47;;;;;;;3.43;2.63;;;16.80;98.80;;;;;;5034266;28;20191;-47
2023/09/28 01:55:14;;;;;;;2.97;2.53;;;16.80;98.90;;;;;;5032800;28;20280;-47
2023/09/28 01:57:40;;;;;;;4.37;3.03;;;16.80;99.20;;;;;;5033782;28;20217;-45
2023/09/28 02:00:14;;;;;;;8.70;2.50;;;16.80;98.50;;;;;;5034240;28;20201;-46
2023/09/28 02:02:39;;;;;;;3.43;2.43;;;16.70;98.90;;;;;;5034043;28;20157;-45
2023/09/28 02:05:07;;;;;;;3.40;2.47;;;16.70;98.30;;;;;;5034441;28;20208;-46
2023/09/28 02:07:34;;;;;;;5.47;2.80;;;16.60;97.20;;;;;;5034169;28;20199;-48
2023/09/28 02:10:00;;;;;;;4.03;2.17;;;16.60;97.00;;;;;;5034043;28;20239;-45
2023/09/28 02:12:27;;;;;;;3.37;2.30;;;16.60;97.60;;;;;;5033910;28;20255;-46
2023/09/28 02:14:56;;;;;;;5.63;2.20;;;16.60;97.60;;;;;;5033945;28;20191;-46
2023/09/28 02:17:22;;;;;;;4.90;2.37;;;16.60;98.50;;;;;;5034002;28;20208;-46
2023/09/28 02:19:47;;;;;;;4.30;2.30;;;16.60;97.70;;;;;;5032418;28;20323;-47
2023/09/28 02:22:13;;;;;;;3.73;2.20;;;16.70;97.40;;;;;;5034043;28;20231;-46
2023/09/28 02:24:39;;;;;;;4.10;2.30;;;16.80;95.60;;;;;;5032526;28;20228;-45
2023/09/28 02:27:05;;;;;;;3.80;2.33;;;16.80;94.00;;;;;;5034437;28;20212;-45
2023/09/28 02:29:30;;;;;;;6.20;2.30;;;16.90;93.00;;;;;;5034000;28;20744;-47
2023/09/28 02:31:56;;;;;;;3.87;2.17;;;16.90;91.20;;;;;;5033708;28;20184;-46
2023/09/28 02:34:22;;;;;;;5.47;2.43;;;17.00;89.60;;;;;;5033604;28;20678;-46
2023/09/28 02:36:48;;;;;;;3.33;2.00;;;17.00;85.10;;;;;;5034057;28;20312;-41
2023/09/28 02:39:14;;;;;;;4.23;2.00;;;17.10;82.10;;;;;;5033550;28;20288;-41
2023/09/28 02:41:40;;;;;;;2.73;2.03;;;17.10;77.80;;;;;;5033676;28;20607;-40
2023/09/28 02:44:05;;;;;;;4.27;2.17;;;17.10;75.50;;;;;;5033384;28;20177;-44
2023/09/28 02:46:31;;;;;;;4.50;2.37;;;17.20;74.30;;;;;;5033303;28;20185;-43
2023/09/28 02:48:57;;;;;;;4.30;2.30;;;17.20;73.40;;;;;;5033287;28;20184;-40
2023/09/28 02:51:22;;;;;;;4.30;2.13;;;17.20;72.40;;;;;;5034179;28;20195;-41
2023/09/28 02:53:48;;;;;;;2.37;1.77;;;17.20;73.60;;;;;;5033610;28;20267;-41
2023/09/28 02:56:14;;;;;;;4.40;2.30;;;17.30;76.00;;;;;;5033598;28;20262;-44
2023/09/28 02:58:40;;;;;;;3.40;2.17;;;17.40;71.60;;;;;;5035539;28;20234;-43
2023/09/28 03:01:05;;;;;;;4.30;2.30;;;17.50;70.50;;;;;;5036372;28;20197;-40
2023/09/28 03:03:31;;;;;;;4.23;2.50;;;17.60;63.90;;;;;;5034454;28;20187;-42
2023/09/28 03:05:58;;;;;;;3.37;2.50;;;17.70;58.50;;;;;;5033537;28;20185;-42
2023/09/28 03:08:24;;;;;;;3.00;2.20;;;17.70;55.50;;;;;;5033936;28;20259;-48
2023/09/28 03:10:50;;;;;;;3.33;2.60;;;17.70;55.00;;;;;;5033574;28;20703;-43
2023/09/28 03:13:16;;;;;;;5.63;2.50;;;17.80;52.10;;;;;;5033525;28;20217;-47
2023/09/28 03:15:44;;;;;;;5.30;2.67;;;17.80;50.00;;;;;;5033050;28;20185;-43
2023/09/28 03:18:13;;;;;;;10.43;3.30;;;17.80;47.20;;;;;;5032959;28;20185;-44
2023/09/28 03:20:43;;;;;;;7.57;2.93;;;17.80;49.50;;;;;;5034288;28;20197;-40
2023/09/28 03:23:09;;;;;;;4.77;3.27;;;17.90;47.60;;;;;;5033243;28;20169;-43
2023/09/28 03:25:34;;;;;;;4.60;2.60;;;17.90;48.30;;;;;;5033375;28;20180;-43
2023/09/28 03:28:01;;;;;;;7.30;2.87;;;18.00;52.60;;;;;;5033233;28;20220;-43
2023/09/28 03:30:28;;;;;;;3.50;2.17;;;18.00;50.10;;;;;;5033248;28;20197;-43
2023/09/28 03:32:54;;;;;;;7.37;2.73;;;18.00;44.60;;;;;;5033231;28;20598;-43
2023/09/28 03:35:20;;;;;;;8.53;2.70;;;18.00;42.60;;;;;;5033042;28;20177;-46
2023/09/28 03:37:47;;;;;;;3.37;2.50;;;18.00;40.40;;;;;;5031874;28;20208;-47
2023/09/28 03:40:14;;;;;;;6.37;2.90;;;18.00;41.10;;;;;;5032800;28;20189;-46
2023/09/28 03:42:46;;;;;;;5.13;3.23;;;17.90;47.40;;;;;;5031829;28;20231;-47
2023/09/28 03:45:14;;;;;;;4.27;2.87;;;17.90;47.70;;;;;;5033384;28;20157;-46
2023/09/28 03:47:41;;;;;;;3.23;2.67;;;17.90;48.00;;;;;;5037032;28;20213;-46
2023/09/28 03:53:06;;;;;;;5.57;3.03;;;17.80;56.40;;;;;;5035068;28;20757;-47
2023/09/28 03:55:31;;;;;;;6.10;3.10;;;17.80;56.70;;;;;;5036097;28;20181;-45
2023/09/28 03:58:02;;;;;;;4.60;2.73;;;17.80;57.30;;;;;;5036160;28;20212;-44
2023/09/28 04:00:27;;;;;;;7.53;2.80;;;17.80;56.60;;;;;;5036527;28;20200;-44
2023/09/28 04:02:54;;;;;;;3.37;2.90;;;17.80;59.10;;;;;;5036058;28;20177;-47
2023/09/28 04:05:20;;;;;;;3.90;3.00;;;17.70;59.70;;;;;;5036328;28;20220;-47
2023/09/28 04:07:46;;;;;;;4.90;2.40;;;17.60;61.50;;;;;;5036323;28;20590;-46
2023/09/28 04:10:12;;;;;;;6.93;2.93;;;17.50;70.80;;;;;;5036327;28;20204;-45
2023/09/28 04:12:38;;;;;;;5.77;3.27;;;17.50;73.70;;;;;;5036228;28;20640;-46
2023/09/28 04:15:05;;;;;;;5.53;3.00;;;17.40;74.90;;;;;;5034684;28;20212;-46
2023/09/28 04:17:31;;;;;;;4.93;2.50;;;17.30;79.00;;;;;;5035906;28;20205;-46
2023/09/28 04:19:56;;;;;;;4.10;2.90;;;17.30;82.60;;;;;;5035841;28;20561;-45
2023/09/28 04:22:22;;;;;;;4.40;2.60;;;17.30;82.90;;;;;;5036092;28;20177;-48
2023/09/28 04:24:47;;;;;;;5.67;2.93;;;17.20;83.10;;;;;;5035990;28;20601;-46
2023/09/28 04:27:13;;;;;;;5.03;3.00;;;17.20;85.10;;;;;;5036153;28;20315;-45
2023/09/28 04:29:39;;;;;;;6.17;2.90;;;17.10;89.20;;;;;;5035482;28;20204;-46
2023/09/28 04:32:05;;;;;;;3.67;2.90;;;17.10;95.30;;;;;;5035592;28;20173;-47
2023/09/28 04:34:31;;;;;;;4.23;3.00;;;17.20;96.70;;;;;;5035824;28;20714;-44
2023/09/28 04:36:57;;;;;;;7.53;3.50;;;17.20;98.50;;;;;;5035446;28;20709;-46
2023/09/28 04:39:24;;;;;;;7.47;3.07;;;17.10;98.90;;;;;;5035412;28;20189;-46
2023/09/28 04:41:53;;;;;;;3.13;2.77;;;17.20;99.30;;;;;;5036056;28;20712;-48
2023/09/28 04:44:19;;;;;;;5.27;3.40;;;17.10;97.50;;;;;;5037146;28;20534;-46
2023/09/28 04:46:45;;;;;;;5.17;3.00;;;17.10;96.80;;;;;;5036575;28;20227;-48
2023/09/28 04:49:11;;;;;;;5.03;3.40;;;17.10;96.50;;;;;;5036594;28;20197;-44
2023/09/28 04:51:37;;;;;;;3.80;2.67;;;17.00;96.80;;;;;;5036330;28;20205;-46
2023/09/28 04:54:03;;;;;;;3.97;2.80;;;16.90;97.20;;;;;;5035911;28;20227;-45
2023/09/28 04:56:28;;;;;;;3.73;2.90;;;16.90;97.90;;;;;;5035459;28;20295;-47
2023/09/28 04:58:54;;;;;;;4.80;3.00;;;16.80;98.70;;;;;;5035248;28;20204;-48
2023/09/28 05:01:21;;;;;;;6.37;3.30;;;16.70;98.70;;;;;;5034935;28;20199;-46
2023/09/28 05:03:46;;;;;;;4.47;2.87;;;16.60;98.80;;;;;;5035125;28;20534;-46
2023/09/28 05:06:12;;;;;;;4.53;2.70;;;16.50;99.10;;;;;;5034872;28;20185;-47
2023/09/28 05:08:38;;;;;;;3.67;2.70;;;16.40;99.90;;;;;;5035159;28;20191;-49
2023/09/28 05:11:05;;;;;;;3.60;2.57;;;16.40;99.90;;;;;;5035532;28;20220;-46
2023/09/28 05:13:31;;;;;;;4.17;2.57;;;16.30;99.90;;;;;;5041366;22;20186;-45
2023/09/28 05:15:57;;;;;;;3.93;2.50;;;16.20;99.90;;;;;;5015134;28;20284;-47
2023/09/28 05:18:23;;;;;;;4.27;2.70;;;16.10;99.90;;;;;;5014965;28;20231;-47
2023/09/28 05:20:48;;;;;;;3.83;2.60;;;16.10;99.90;;;;;;5015018;28;20288;-47
2023/09/28 05:23:15;;;;;;;3.67;2.60;;;16.00;99.90;;;;;;5014806;28;20261;-46
2023/09/28 05:25:41;;;;;;;6.23;2.70;;;15.90;99.90;;;;;;5014743;28;20227;-46
2023/09/28 05:28:08;;;;;;;5.07;2.83;;;15.90;99.90;;;;;;5015246;28;20181;-46
2023/09/28 05:30:35;;;;;;;6.83;2.70;;;15.90;99.90;;;;;;5014589;28;20201;-47
2023/09/28 05:33:02;;;;;;;3.93;2.40;;;15.80;99.90;;;;;;5014638;28;20182;-46
2023/09/28 05:35:29;;;;;;;3.87;2.80;;;15.70;99.90;;;;;;5014857;28;20256;-48
2023/09/28 05:37:55;;;;;;;4.37;2.53;;;15.70;99.90;;;;;;5013271;28;20212;-46
2023/09/28 05:40:21;;;;;;;4.43;2.70;;;15.70;99.90;;;;;;5014474;28;20221;-47
2023/09/28 05:42:48;;;;;;;3.87;2.80;;;15.70;99.90;;;;;;5013677;28;20177;-48
2023/09/28 05:45:14;;;;;;;4.57;3.00;;;15.60;99.90;;;;;;5013180;28;20645;-48
2023/09/28 05:47:40;;;;;;;5.90;3.10;;;15.60;99.90;;;;;;5014392;28;20709;-47
2023/09/28 05:50:13;;;;;;;5.07;3.20;;;15.50;99.90;;;;;;5014171;28;20209;-47
2023/09/28 05:52:41;;;;;;;7.30;2.93;;;15.60;99.90;;;;;;5013064;28;20528;-45
2023/09/28 05:55:08;;;;;;;6.30;3.03;;;15.60;99.90;;;;;;5013033;28;20182;-47
2023/09/28 05:57:34;;;;;;;5.30;3.07;;;15.60;99.90;;;;;;5012892;28;20209;-45
2023/09/28 06:00:00;;;;;;;3.50;2.93;;;15.70;99.90;;;;;;5014402;28;20198;-45
2023/09/28 06:02:26;;;;;;;5.90;2.97;;;15.70;99.90;;;;;;5014033;28;20182;-47
2023/09/28 06:04:52;;;;;;;9.23;3.67;;;15.60;99.90;;;;;;5014372;28;20194;-48
2023/09/28 06:07:19;;;;;;;4.70;3.30;;;15.70;99.90;;;;;;5012788;28;20189;-45
2023/09/28 06:09:45;;;;;;;5.67;3.80;;;15.70;99.90;;;;;;5012221;28;20263;-45
2023/09/28 06:12:11;;;;;;;8.23;3.87;;;15.70;99.90;;;;;;5013874;28;20189;-47
2023/09/28 06:14:38;;;;;;;8.47;4.60;;;15.80;99.90;;;;;;5013973;28;20587;-46
2023/09/28 06:17:04;;;;;;;9.00;3.90;;;15.80;99.90;;;;;;5013841;28;20202;-48
2023/09/28 06:19:30;;;;;;;7.07;3.90;;;15.90;99.90;;;;;;5013725;28;20205;-45
2023/09/28 06:21:57;;;;;;;7.00;3.80;;;16.00;99.90;;;;;;5014165;28;20178;-48
2023/09/28 06:24:24;;;;;;;13.73;4.70;;;16.00;99.90;;;;;;5013199;28;20208;-45
2023/09/28 06:26:50;;;;;;;6.53;3.83;;;16.10;99.90;;;;;;5014554;28;20211;-47
2023/09/28 06:29:16;;;;;;;8.27;4.10;;;16.10;99.90;;;;;;5014003;28;20210;-47
2023/09/28 06:31:42;;;;;;;5.70;3.90;;;16.10;99.90;;;;;;5013768;28;20189;-47
2023/09/28 06:34:08;;;;;;;6.10;3.77;;;16.20;99.90;;;;;;5013798;28;20637;-49
2023/09/28 06:36:34;;;;;;;6.13;4.20;;;16.20;99.90;;;;;;5013760;28;20201;-49
2023/09/28 06:39:00;;;;;;;6.23;3.87;;;16.20;99.90;;;;;;5012303;28;20185;-47
2023/09/28 06:41:27;;;;;;;7.20;4.60;;;16.20;99.90;;;;;;5013584;28;20189;-47
2023/09/28 06:43:53;;;;;;;7.73;4.30;;;16.20;99.90;;;;;;5014068;28;20181;-49
2023/09/28 06:46:19;;;;;;;7.93;4.97;;;16.30;99.90;;;;;;5013966;28;20554;-48
2023/09/28 06:48:45;;;;;;;6.00;4.53;;;16.30;99.90;;;;;;5012507;28;20189;-48
2023/09/28 06:51:12;;;;;;;7.73;4.57;;;16.30;99.90;;;;;;5013904;28;20220;-45
2023/09/28 06:53:41;;;;;;;10.50;4.13;;;16.40;99.90;;;;;;5012350;28;20189;-47
2023/09/28 06:56:06;;;;;;;9.73;4.77;;;16.50;99.90;;;;;;5012521;28;20236;-47
2023/09/28 06:58:33;;;;;;;9.57;4.30;;;16.50;99.90;;;;;;5013463;28;20186;-46
2023/09/28 07:00:59;;;;;;;9.40;4.10;;;16.50;99.90;;;;;;5013349;28;20208;-46
2023/09/28 07:03:26;;;;;;;5.63;3.93;;;16.60;99.90;;;;;;5012224;28;20186;-45
2023/09/28 07:05:52;;;;;;;7.07;4.20;;;16.70;99.90;;;;;;5014267;28;20276;-47
2023/09/28 07:08:18;;;;;;;5.30;3.70;;;16.80;99.90;;;;;;5013413;28;20220;-46
2023/09/28 07:10:44;;;;;;;7.37;4.77;;;16.90;99.90;;;;;;5012244;28;20201;-47
2023/09/28 07:13:11;;;;;;;9.33;4.30;;;16.90;99.90;;;;;;5013479;28;20201;-49
2023/09/28 07:15:37;;;;;;;9.50;4.67;;;17.00;99.90;;;;;;5013300;28;20217;-45
2023/09/28 07:18:03;;;;;;;8.17;4.83;;;17.20;99.90;;;;;;5011977;28;20248;-47
2023/09/28 07:20:30;;;;;;;12.97;4.70;;;17.30;99.90;;;;;;5013638;28;20202;-46
2023/09/28 07:22:56;;;;;;;13.97;5.30;;;17.50;99.90;;;;;;5015972;28;20201;-48
2023/09/28 07:25:25;;;;;;;9.00;4.53;;;17.60;99.90;;;;;;5017208;28;20209;-47
2023/09/28 07:27:52;;;;;;;9.23;4.80;;;17.70;99.90;;;;;;5017263;28;20251;-47
2023/09/28 07:30:19;;;;;;;11.30;3.73;;;17.80;99.90;;;;;;5015824;28;20210;-47
2023/09/28 07:32:49;;;;;;;10.93;4.27;;;17.90;99.90;;;;;;5017159;28;20247;-46
2023/09/28 07:35:15;;;;;;;9.90;4.43;;;17.90;99.90;;;;;;5017693;28;20627;-47
2023/09/28 07:37:42;;;;;;;9.53;4.57;;;18.00;99.90;;;;;;5016707;28;20209;-47
2023/09/28 07:40:12;;;;;;;7.63;4.10;;;18.10;99.90;;;;;;5015477;28;20665;-47
2023/09/28 07:42:43;;;;;;;8.80;4.57;;;18.10;99.90;;;;;;5016773;28;20603;-47
2023/09/28 07:45:13;;;;;;;7.73;4.30;;;18.20;99.90;;;;;;5015514;28;20544;-47
2023/09/28 07:47:39;;;;;;;8.23;4.30;;;18.40;99.90;;;;;;5015331;28;20239;-47
2023/09/28 07:50:06;;;;;;;7.17;4.77;;;18.40;99.90;;;;;;5016533;28;20207;-46
2023/09/28 07:52:32;;;;;;;6.47;4.10;;;18.50;99.90;;;;;;5016390;28;20190;-48
2023/09/28 07:54:58;;;;;;;8.63;4.10;;;18.60;99.90;;;;;;5016820;28;20558;-47
2023/09/28 07:57:24;;;;;;;11.70;4.53;;;18.60;99.90;;;;;;5015436;28;20216;-46
2023/09/28 07:59:53;;;;;;;8.93;4.03;;;18.60;99.90;;;;;;5016604;28;20602;-48
2023/09/28 08:02:19;;;;;;;9.40;3.93;;;18.60;99.90;;;;;;5016677;28;20264;-47
2023/09/28 08:04:47;;;;;;;11.07;3.97;;;18.60;99.90;;;;;;5016554;28;20215;-46
2023/09/28 08:07:13;;;;;;;10.77;3.87;;;18.60;99.90;;;;;;5016194;28;20248;-45
2023/09/28 08:09:39;;;;;;;8.27;3.80;;;18.60;99.90;;;;;;5016051;28;20205;-46
2023/09/28 08:12:06;;;;;;;12.00;3.87;;;18.70;99.90;;;;;;5016431;28;20631;-47
2023/09/28 08:14:32;;;;;;;11.27;4.30;;;18.80;99.90;;;;;;5016327;28;20217;-46
2023/09/28 08:16:58;;;;;;;9.30;3.77;;;18.90;99.90;;;;;;5015897;28;20209;-48
2023/09/28 08:19:24;;;;;;;8.67;3.23;;;18.90;98.00;;;;;;5015923;28;20248;-48
2023/09/28 08:21:50;;;;;;;9.30;3.27;;;19.00;88.30;;;;;;5016013;28;20253;-44
2023/09/28 08:24:16;;;;;;;9.50;3.90;;;19.10;71.90;;;;;;5016069;28;20185;-48
2023/09/28 08:26:42;;;;;;;7.90;3.43;;;19.10;59.80;;;;;;5014632;28;20200;-47
2023/09/28 08:29:08;;;;;;;7.70;3.33;;;19.20;55.80;;;;;;5015759;28;20186;-48
2023/09/28 08:31:34;;;;;;;9.20;3.40;;;19.30;56.10;;;;;;5014099;28;20193;-46
2023/09/28 08:34:00;;;;;;;10.97;4.20;;;19.30;59.60;;;;;;5014947;28;20193;-41
2023/09/28 08:36:27;;;;;;;7.83;3.80;;;19.40;55.70;;;;;;5015614;28;20251;-43
2023/09/28 08:38:54;;;;;;;10.97;3.80;;;19.50;60.10;;;;;;5014311;28;20189;-42
2023/09/28 08:41:32;;;;;;;11.07;3.40;;;19.60;61.90;;;;;;5015915;28;20595;-43
2023/09/28 08:44:07;;;;;;;9.23;3.83;;;19.70;55.10;;;;;;5015886;28;20172;-43
2023/09/28 08:46:39;;;;;;;9.33;3.00;;;19.70;48.40;;;;;;5015801;28;20609;-42
2023/09/28 08:49:10;;;;;;;13.93;3.10;;;19.80;25.70;;;;;;5015684;28;20557;-43
2023/09/28 08:51:38;;;;;;;7.47;3.13;;;19.90;18.70;;;;;;5015439;28;20177;-42
2023/09/28 08:54:05;;;;;;;6.47;3.33;;;20.00;1.00;;;;;;5014044;28;20192;-40
2023/09/28 08:56:37;;;;;;;13.83;3.37;;;20.00;1.00;;;;;;5015572;28;20208;-41
2023/09/28 08:59:05;;;;;;;8.87;3.13;;;20.10;1.00;;;;;;5024196;22;20272;-40
2023/09/28 09:01:34;;;;;;;10.63;3.90;;;20.20;1.00;;;;;;5015496;28;20185;-42
2023/09/28 09:04:00;;;;;;;9.77;3.93;;;20.20;1.00;;;;;;5015172;28;20178;-41
2023/09/28 09:06:28;;;;;;;9.33;3.17;;;20.30;1.00;;;;;;5015412;28;20181;-41
2023/09/28 09:09:00;;;;;;;17.13;3.90;;;20.40;1.00;;;;;;5013664;28;20189;-41
2023/09/28 09:11:30;;;;;;;7.60;2.90;;;20.40;1.00;;;;;;5014122;28;20193;-46
2023/09/28 09:13:56;;;;;;;8.07;2.90;;;20.50;1.00;;;;;;5013760;28;20185;-46
2023/09/28 09:16:23;;;;;;;11.50;3.10;;;20.60;1.00;;;;;;5014823;28;20711;-46
2023/09/28 09:18:51;;;;;;;7.37;2.60;;;20.60;1.00;;;;;;5014927;28;20265;-48
2023/09/28 09:21:17;;;;;;;9.20;2.70;;;20.80;1.00;;;;;;5013631;28;20204;-49
2023/09/28 09:23:43;;;;;;;11.47;3.13;;;20.80;1.00;;;;;;5013499;28;20239;-49
2023/09/28 09:26:18;;;;;;;11.60;3.47;;;20.80;1.00;;;;;;5014683;28;20657;-48
2023/09/28 09:28:48;;;;;;;12.33;3.30;;;20.70;1.00;;;;;;5015275;28;20185;-46
2023/09/28 09:31:14;;;;;;;12.80;3.70;;;20.80;1.00;;;;;;4997428;28;20216;-47
2023/09/28 09:33:43;;;;;;;8.60;3.13;;;20.80;1.00;;;;;;5014587;28;20231;-48
2023/09/28 09:36:09;;;;;;;10.80;2.90;;;20.80;1.00;;;;;;5014756;28;20292;-46
2023/09/28 09:38:35;;;;;;;12.20;3.40;;;20.90;1.00;;;;;;5014459;28;20525;-47
2023/09/28 09:41:04;;;;;;;9.23;2.63;;;20.90;99.90;;;;;;5014375;28;20205;-47
2023/09/28 09:43:32;;;;;;;7.57;2.83;;;21.00;99.90;;;;;;5013830;28;20185;-47
2023/09/28 09:45:58;;;;;;;6.40;2.37;;;21.00;99.90;;;;;;5014346;28;20189;-47
2023/09/28 09:48:24;;;;;;;11.07;2.90;;;21.10;1.00;;;;;;5013100;28;20641;-48
2023/09/28 09:50:52;;;;;;;10.57;2.93;;;21.10;99.90;;;;;;5014204;28;20201;-48
2023/09/28 09:53:19;;;;;;;7.17;2.70;;;21.20;99.90;;;;;;5013302;28;20760;-49
2023/09/28 09:55:49;;;;;;;9.83;2.93;;;21.30;99.90;;;;;;5014070;28;20178;-47
2023/09/28 09:58:19;;;;;;;9.53;2.80;;;21.50;81.50;;;;;;5014236;28;20178;-46
2023/09/28 10:00:46;;;;;;;11.17;3.00;;;21.60;99.90;;;;;;5014003;28;20213;-47
2023/09/28 10:03:13;;;;;;;9.70;2.47;;;21.70;99.90;;;;;;5012972;28;20186;-47
2023/09/28 10:05:40;;;;;;;6.90;2.33;;;21.70;1.00;;;;;;5014030;28;20260;-47
2023/09/28 10:08:07;;;;;;;9.97;2.63;;;21.80;99.90;;;;;;5014314;28;20193;-47
2023/09/28 10:10:35;;;;;;;9.33;2.87;;;21.90;99.90;;;;;;5013872;28;20259;-47
2023/09/28 10:13:02;;;;;;;11.07;3.73;;;21.90;1.00;;;;;;5014257;28;20593;-46
2023/09/28 10:15:28;;;;;;;8.10;2.90;;;22.00;1.00;;;;;;5014213;28;20214;-46
2023/09/28 10:17:54;;;;;;;7.33;2.70;;;22.00;1.00;;;;;;5013756;28;20212;-46
2023/09/28 10:20:20;;;;;;;12.13;3.10;;;22.10;99.90;;;;;;5014427;28;20217;-47
2023/09/28 10:22:47;;;;;;;7.47;2.63;;;22.20;99.90;;;;;;5014376;28;20178;-47
2023/09/28 10:25:15;;;;;;;14.37;3.33;;;22.20;1.00;;;;;;4996334;28;20668;-47
2023/09/28 10:27:45;;;;;;;11.77;3.07;;;22.30;99.90;;;;;;5013989;28;20193;-47
2023/09/28 10:30:20;;;;;;;7.60;2.80;;;22.30;1.00;;;;;;5013634;28;20680;-47
2023/09/28 10:32:47;;;;;;;5.87;3.30;;;22.30;1.00;;;;;;5013980;28;20204;-46
2023/09/28 10:35:27;;;;;;;8.47;2.97;;;22.30;99.90;;;;;;5013949;28;20197;-48
2023/09/28 10:38:17;;;;;;;10.03;2.87;;;22.30;1.00;;;;;;5013734;28;20581;-47
2023/09/28 10:40:58;;;;;;;11.07;2.87;;;22.30;99.90;;;;;;5013660;28;20305;-46
2023/09/28 10:43:32;;;;;;;9.57;3.23;;;22.30;1.00;;;;;;5012398;28;20177;-47
2023/09/28 10:46:03;;;;;;;7.87;2.87;;;22.30;1.00;;;;;;5013936;28;20170;-48
2023/09/28 10:48:37;;;;;;;9.63;3.27;;;22.30;99.90;;;;;;5012584;28;20174;-48
2023/09/28 10:51:11;;;;;;;9.00;2.90;;;22.30;1.00;;;;;;5012348;28;20240;-46
2023/09/28 10:53:37;;;;;;;7.63;2.73;;;22.30;1.00;;;;;;5012372;28;20178;-48
2023/09/28 10:56:06;;;;;;;9.47;2.97;;;22.40;99.90;;;;;;5016111;28;20236;-47
2023/09/28 10:58:42;;;;;;;4.57;2.43;;;22.40;1.00;;;;;;5017492;28;20721;-48
2023/09/28 11:01:10;;;;;;;9.03;2.77;;;22.50;1.00;;;;;;5017826;28;20565;-47
2023/09/28 11:03:37;;;;;;;9.83;2.60;;;22.50;99.90;;;;;;5017456;28;20337;-48
2023/09/28 11:06:04;;;;;;;7.77;2.73;;;22.50;99.90;;;;;;5017486;28;20185;-49
2023/09/28 11:08:33;;;;;;;9.27;2.80;;;22.50;1.00;;;;;;5017291;28;20188;-49
2023/09/28 11:11:01;;;;;;;10.03;2.43;;;22.60;1.00;;;;;;5017333;28;20259;-47
2023/09/28 11:13:30;;;;;;;13.43;3.20;;;22.60;99.90;;;;;;5017357;28;20193;-47
2023/09/28 11:15:57;;;;;;;11.27;3.23;;;22.70;1.00;;;;;;5015917;28;20316;-47
2023/09/28 11:18:25;;;;;;;9.70;3.00;;;22.70;1.00;;;;;;5017589;28;20200;-46
2023/09/28 11:20:51;;;;;;;6.17;2.30;;;22.70;1.00;;;;;;5016067;28;20205;-44
2023/09/28 11:23:17;;;;;;;8.23;3.33;;;22.80;99.90;;;;;;5017451;28;20655;-43
2023/09/28 11:25:43;;;;;;;10.77;2.80;;;22.70;99.90;;;;;;5017464;28;20189;-43
2023/09/28 11:28:11;;;;;;;6.60;2.73;;;22.80;99.90;;;;;;5017332;28;20244;-41
2023/09/28 11:30:37;;;;;;;7.90;3.43;;;22.80;1.00;;;;;;5017376;28;20201;-40
2023/09/28 11:33:04;;;;;;;10.70;3.20;;;22.80;1.00;;;;;;5017125;28;20585;-42
2023/09/28 11:35:31;;;;;;;10.77;3.93;;;22.80;99.90;;;;;;5016879;28;20193;-43
2023/09/28 11:38:02;;;;;;;10.10;3.40;;;22.90;99.90;;;;;;5017028;28;20205;-47
2023/09/28 11:40:30;;;;;;;7.17;3.37;;;22.90;1.00;;;;;;5016818;28;20202;-48
2023/09/28 11:43:00;;;;;;;9.47;2.87;;;23.00;1.00;;;;;;5016014;28;20182;-47
2023/09/28 11:45:33;;;;;;;12.30;3.63;;;23.10;1.00;;;;;;5015460;28;20204;-47
2023/09/28 11:48:05;;;;;;;10.13;3.17;;;23.20;99.90;;;;;;5017171;28;20273;-46
2023/09/28 11:50:32;;;;;;;9.17;3.13;;;23.30;1.00;;;;;;5016951;28;20609;-48
2023/09/28 11:52:58;;;;;;;11.57;3.57;;;23.40;99.90;;;;;;5015438;28;20217;-47
2023/09/28 11:55:25;;;;;;;8.37;3.20;;;23.50;99.90;;;;;;5015282;28;20185;-48
2023/09/28 11:57:51;;;;;;;9.87;3.63;;;23.50;77.40;;;;;;5016295;28;20669;-48
2023/09/28 12:00:18;;;;;;;6.27;3.13;;;23.60;99.90;;;;;;5015020;28;20227;-47
2023/09/28 12:02:46;;;;;;;9.07;3.50;;;23.60;1.00;;;;;;5016342;28;20703;-48
2023/09/28 12:05:13;;;;;;;9.47;3.50;;;23.60;99.90;;;;;;5016422;28;20178;-47
2023/09/28 12:07:40;;;;;;;10.33;3.63;;;23.60;37.00;;;;;;5014351;28;20212;-47
2023/09/28 12:10:11;;;;;;;10.03;3.47;;;23.50;99.90;;;;;;5015104;28;20217;-46
2023/09/28 12:12:39;;;;;;;9.00;3.40;;;23.50;1.00;;;;;;5016577;28;20177;-47
2023/09/28 12:15:10;;;;;;;8.33;3.47;;;23.60;1.00;;;;;;5016496;28;20189;-48
2023/09/28 12:17:40;;;;;;;10.00;3.07;;;23.60;1.00;;;;;;5014748;28;20244;-48
2023/09/28 12:20:14;;;;;;;8.13;3.27;;;23.60;1.00;;;;;;5014683;28;20684;-48
2023/09/28 12:22:43;;;;;;;10.27;3.00;;;23.60;1.00;;;;;;4998843;28;20178;-47
2023/09/28 12:25:10;;;;;;;8.80;3.23;;;23.70;1.00;;;;;;5014845;28;20182;-47
2023/09/28 12:27:36;;;;;;;8.07;2.80;;;23.70;1.00;;;;;;5014735;28;20190;-47
2023/09/28 12:30:03;;;;;;;5.87;2.57;;;23.80;1.00;;;;;;5016207;28;20205;-48
2023/09/28 12:32:30;;;;;;;6.57;2.67;;;24.00;1.00;;;;;;4998335;28;20251;-47
2023/09/28 12:34:57;;;;;;;8.63;2.70;;;24.00;1.00;;;;;;5015665;28;20240;-47
2023/09/28 12:37:23;;;;;;;8.90;2.97;;;24.10;1.00;;;;;;5015680;28;20217;-47
2023/09/28 12:39:53;;;;;;;8.23;3.10;;;24.20;49.00;;;;;;5015759;28;20201;-47
2023/09/28 12:42:24;;;;;;;8.33;2.90;;;24.20;1.00;;;;;;5016516;28;20181;-48
2023/09/28 12:44:50;;;;;;;7.73;2.93;;;24.30;1.00;;;;;;5015875;28;20166;-43
2023/09/28 12:47:19;;;;;;;7.00;2.67;;;24.30;99.90;;;;;;5015802;28;20213;-43
2023/09/28 12:49:45;;;;;;;5.40;2.33;;;24.30;99.90;;;;;;5015740;28;20217;-44
2023/09/28 12:52:11;;;;;;;5.67;2.43;;;24.30;99.90;;;;;;5015478;28;20236;-41
2023/09/28 12:54:37;;;;;;;6.10;2.13;;;24.20;1.00;;;;;;5014316;28;20186;-41
2023/09/28 12:57:03;;;;;;;7.13;2.60;;;24.20;90.30;;;;;;5015319;28;20288;-44
2023/09/28 12:59:29;;;;;;;6.53;2.53;;;24.20;99.90;;;;;;5015116;28;20221;-42